Shabbona, IL (60550)

6:33 AM CDT on August 25, 2016 (GMT -0500)
Herrmann Family Farms, LLC. | | Change Station

Elev 922 ft 41.82 °N, 88.89 °W | Updated 7 seconds ago

Overcast
Overcast
69.8 °F
Feels Like 69.8 °F
N
7.8
Wind Variable Wind from NNW

Today
High -- | Low -- °F
--% Chance of Precip.
Yesterday
High -- | Low -- °F
Precip. -- in
Pressure 29.99 in
Visibility 7.0 miles
Clouds Overcast 500 ft
Dew Point 68 °F
Humidity 94%
Rainfall 0.17 in
Snow Depth Not available.
6:14 AM 7:39 PM
Waning Gibbous, 46% visible
METAR KDKB 251115Z AUTO 29006KT 7SM OVC005 21/21 A2999 RMK AO2 T02120207
Pressure 29.99 in
Visibility 7.0 miles
Clouds Overcast 500 ft
Dew Point 68 °F
Humidity 94%
Rainfall 0.17 in
Snow Depth Not available.
6:14 AM 7:39 PM
Waning Gibbous, 46% visible
METAR KDKB 251115Z AUTO 29006KT 7SM OVC005 21/21 A2999 RMK AO2 T02120207

10-Day Weather Forecast

Almanac

Astronomy

Aug. 25, 2016 Rise Set
Actual Time
Civil Twilight
Nautical Twilight
Astronomical Twilight
Moon
Length of Visible Light
Length of Day
Tomorrow will be .
, % of the Moon is Illuminated

Today's Extremes

State Highs State Lows

Community

WunderPhotos

Upload Photos

1,934,822 photos uploaded!

WunderBlog® & News

Nearby

Air Quality

  Air Quality AQ Index Pollutant
Not available.

Snow Depth

Station Depth Elevation

Earthquake Activity

City Distance Mag. Time & Date
Minimum magnitude displayed is 2.5.

Coastal Water Temperatures

Place Temperature

Stations

Nearby Weather Stations

Station Location Temp. Windchill Dew Point Humidity Wind Precip. Elev Updated Type
                   

Watches & Warnings

There are currently no watches in effect.